Time;durP1;ratioP1;P1;durP2;ratioP2;P2;SDS_P1;SDS_P2;PMS_P1;PMS_P2;Temp;Humidity;BMP_temperature;BMP_pressure;BME280_temperature;BME280_humidity;BME280_pressure;Samples;Min_cycle;Max_cycle;Signal;HPM_P1;HPM_P2
2022/06/15 00:01:26;;;;;;;31.60;8.83;;;17.00;23.60;;;;;;4968611;28;21084;-67
2022/06/15 00:03:55;;;;;;;29.67;9.27;;;17.00;23.70;;;;;;4968656;28;20462;-68
2022/06/15 00:06:24;;;;;;;29.77;9.10;;;16.90;23.70;;;;;;4982007;28;20469;-68
2022/06/15 00:08:52;;;;;;;30.70;8.77;;;16.90;24.00;;;;;;4988015;28;20495;-67
2022/06/15 00:11:22;;;;;;;32.17;8.83;;;16.90;24.30;;;;;;4987867;28;20464;-68
2022/06/15 00:13:50;;;;;;;30.33;9.43;;;16.80;24.50;;;;;;4988471;28;20461;-68
2022/06/15 00:16:17;;;;;;;29.97;9.30;;;16.80;24.60;;;;;;4986028;28;20460;-67
2022/06/15 00:18:44;;;;;;;28.60;8.90;;;16.70;24.80;;;;;;4988278;28;20955;-68
2022/06/15 00:21:14;;;;;;;31.07;10.20;;;16.70;24.50;;;;;;4991233;28;20460;-68
2022/06/15 00:23:41;;;;;;;31.83;8.90;;;16.70;25.00;;;;;;4991947;28;20771;-68
2022/06/15 00:26:08;;;;;;;31.70;8.87;;;16.60;25.00;;;;;;4990862;28;20464;-67
2022/06/15 00:28:35;;;;;;;31.63;9.77;;;16.60;25.00;;;;;;4991313;28;20965;-67
2022/06/15 00:31:02;;;;;;;32.50;11.17;;;16.50;25.30;;;;;;4991117;28;21012;-67
2022/06/15 00:33:29;;;;;;;32.40;9.30;;;16.50;25.30;;;;;;4991045;28;20460;-68
2022/06/15 00:35:59;;;;;;;29.33;10.23;;;16.40;25.40;;;;;;4990789;28;20834;-67
2022/06/15 00:38:30;;;;;;;32.37;10.27;;;16.40;25.40;;;;;;4975969;28;20485;-67
2022/06/15 00:40:57;;;;;;;31.17;9.10;;;16.40;25.90;;;;;;4992575;28;20441;-68
2022/06/15 00:43:35;;;;;;;33.00;9.60;;;16.30;26.00;;;;;;4991648;28;20469;-67
2022/06/15 00:46:12;;;;;;;30.97;9.90;;;16.30;26.40;;;;;;4991433;28;20466;-68
2022/06/15 00:48:39;;;;;;;31.00;10.73;;;16.20;26.50;;;;;;4990127;28;20556;-68
2022/06/15 00:54:29;;;;;;;31.60;9.70;;;16.20;26.90;;;;;;4991195;28;20806;-68
2022/06/15 00:56:56;;;;;;;30.87;9.53;;;16.20;26.40;;;;;;4990856;28;20498;-67
2022/06/15 00:59:28;;;;;;;30.57;9.40;;;16.20;26.40;;;;;;4989913;28;20860;-68
2022/06/15 01:01:55;;;;;;;30.60;10.80;;;16.10;26.80;;;;;;4990096;28;20540;-68
2022/06/15 01:04:22;;;;;;;31.93;10.77;;;16.10;26.70;;;;;;4991174;28;20461;-68
2022/06/15 01:06:52;;;;;;;36.17;11.90;;;16.10;26.60;;;;;;4990711;28;20579;-68
2022/06/15 01:09:22;;;;;;;30.10;9.43;;;16.10;26.70;;;;;;4990521;28;20484;-68
2022/06/15 01:12:02;;;;;;;33.87;10.43;;;16.00;26.90;;;;;;4990215;28;20469;-68
2022/06/15 01:14:56;;;;;;;32.50;10.63;;;16.00;27.20;;;;;;4991247;28;20460;-68
2022/06/15 01:17:35;;;;;;;32.90;10.20;;;15.90;27.40;;;;;;4989389;28;20485;-68
2022/06/15 01:20:25;;;;;;;35.17;11.00;;;15.90;27.10;;;;;;4991404;28;20441;-68
2022/06/15 01:23:18;;;;;;;30.57;10.33;;;15.80;27.10;;;;;;4989120;28;20469;-68
2022/06/15 01:25:51;;;;;;;33.17;10.13;;;15.70;28.30;;;;;;4990328;28;20460;-67
2022/06/15 01:28:43;;;;;;;32.73;10.30;;;15.70;27.40;;;;;;4990767;28;20477;-67
2022/06/15 01:31:20;;;;;;;31.27;9.70;;;15.70;27.90;;;;;;4989673;28;20559;-68
2022/06/15 01:34:04;;;;;;;30.63;10.07;;;15.70;27.60;;;;;;4990506;28;20480;-67
2022/06/15 01:36:43;;;;;;;33.20;10.00;;;15.60;27.50;;;;;;4990391;28;20997;-67
2022/06/15 01:39:17;;;;;;;34.40;10.10;;;15.60;27.90;;;;;;4990846;28;20847;-67
2022/06/15 01:41:50;;;;;;;31.60;9.90;;;15.60;27.90;;;;;;4990103;28;20469;-67
2022/06/15 01:44:21;;;;;;;33.73;10.03;;;15.50;27.90;;;;;;4989477;28;20584;-67
2022/06/15 01:46:49;;;;;;;39.23;12.57;;;15.50;27.90;;;;;;4989879;28;20539;-68
2022/06/15 01:49:21;;;;;;;32.73;10.13;;;15.50;28.00;;;;;;4990445;28;20481;-68
2022/06/15 01:51:50;;;;;;;31.23;9.33;;;15.50;28.20;;;;;;4989647;28;20441;-68
2022/06/15 01:54:23;;;;;;;30.77;9.87;;;15.50;28.20;;;;;;4989193;28;20863;-68
2022/06/15 01:56:52;;;;;;;30.47;9.63;;;15.40;28.40;;;;;;4990001;28;20989;-68
2022/06/15 01:59:24;;;;;;;31.47;10.10;;;15.40;28.50;;;;;;4990021;28;20468;-68
2022/06/15 02:02:01;;;;;;;32.83;11.10;;;15.40;28.40;;;;;;4989433;28;20481;-67
2022/06/15 02:04:34;;;;;;;36.67;11.73;;;15.40;28.50;;;;;;4988503;28;20491;-68
2022/06/15 02:07:21;;;;;;;34.93;11.40;;;15.40;28.40;;;;;;4989840;28;20518;-67
2022/06/15 02:09:54;;;;;;;30.90;10.50;;;15.40;28.50;;;;;;4989770;28;20492;-68
2022/06/15 02:12:28;;;;;;;35.20;12.67;;;15.40;28.30;;;;;;4989845;28;20495;-67
2022/06/15 02:14:59;;;;;;;33.00;10.60;;;15.40;28.20;;;;;;4988602;28;20464;-68
2022/06/15 02:17:30;;;;;;;33.40;11.13;;;15.40;28.10;;;;;;4989683;28;20485;-68
2022/06/15 02:20:02;;;;;;;35.87;13.30;;;15.40;28.30;;;;;;4989543;28;20916;-68
2022/06/15 02:22:32;;;;;;;37.27;12.30;;;15.40;28.10;;;;;;4989989;28;20584;-68
2022/06/15 02:25:04;;;;;;;33.60;9.97;;;15.40;27.90;;;;;;4988355;28;20767;-68
2022/06/15 02:27:33;;;;;;;33.10;10.80;;;15.40;28.10;;;;;;4989384;28;20507;-68
2022/06/15 02:30:05;;;;;;;31.57;10.50;;;15.20;28.70;;;;;;4988960;28;20565;-68
2022/06/15 02:32:36;;;;;;;35.37;12.20;;;15.20;28.70;;;;;;4988160;28;20453;-68
2022/06/15 02:35:04;;;;;;;31.03;10.20;;;15.30;28.70;;;;;;4988411;28;20467;-68
2022/06/15 02:37:31;;;;;;;33.40;11.07;;;15.20;28.70;;;;;;4989197;28;20472;-67
2022/06/15 02:39:57;;;;;;;37.33;11.60;;;15.20;28.70;;;;;;4989481;28;20453;-67
2022/06/15 02:42:28;;;;;;;42.60;13.03;;;15.30;28.90;;;;;;4988261;28;21006;-67
2022/06/15 02:44:59;;;;;;;35.90;12.57;;;15.20;29.10;;;;;;4988404;28;20492;-67
2022/06/15 02:47:31;;;;;;;35.57;10.97;;;15.20;29.00;;;;;;4990264;28;20477;-68
2022/06/15 02:50:00;;;;;;;31.57;10.50;;;15.30;28.80;;;;;;4989693;28;20842;-67
2022/06/15 02:52:31;;;;;;;31.83;10.37;;;15.20;29.40;;;;;;4989651;28;20834;-67
2022/06/15 02:54:59;;;;;;;31.20;10.53;;;15.10;29.50;;;;;;4989187;28;20560;-67
2022/06/15 02:57:26;;;;;;;34.57;10.33;;;15.10;29.50;;;;;;4988651;28;20488;-67
2022/06/15 02:59:53;;;;;;;33.60;11.43;;;15.10;29.50;;;;;;4989193;28;20794;-67
2022/06/15 03:02:20;;;;;;;33.33;11.53;;;15.00;29.60;;;;;;4988782;28;20472;-67
2022/06/15 03:04:48;;;;;;;37.87;12.47;;;15.10;29.50;;;;;;4988642;28;20845;-67
2022/06/15 03:07:19;;;;;;;35.47;11.57;;;15.00;29.50;;;;;;4987467;28;20484;-68
2022/06/15 03:09:46;;;;;;;32.30;10.47;;;15.00;29.50;;;;;;4989137;28;20485;-67
2022/06/15 03:12:12;;;;;;;34.33;12.47;;;15.00;29.70;;;;;;4988253;28;20486;-68
2022/06/15 03:14:39;;;;;;;32.97;12.30;;;14.90;29.60;;;;;;4989353;28;21111;-68
2022/06/15 03:17:06;;;;;;;36.07;12.10;;;14.90;29.70;;;;;;4987038;28;20487;-67
2022/06/15 03:19:33;;;;;;;37.07;11.40;;;14.90;29.70;;;;;;4988920;28;20518;-67
2022/06/15 03:22:00;;;;;;;30.53;10.87;;;14.90;29.90;;;;;;4988016;28;20640;-67
2022/06/15 03:24:28;;;;;;;34.37;11.00;;;14.80;30.10;;;;;;4988836;28;20843;-67
2022/06/15 03:26:55;;;;;;;35.53;11.20;;;14.90;30.20;;;;;;4987811;28;20495;-68
2022/06/15 03:29:22;;;;;;;32.23;11.43;;;14.90;30.30;;;;;;4988361;28;20468;-68
2022/06/15 03:31:48;;;;;;;31.40;11.23;;;14.90;30.50;;;;;;4988107;28;20496;-63
2022/06/15 03:34:15;;;;;;;31.37;10.00;;;14.90;30.40;;;;;;4987449;28;20468;-62
2022/06/15 03:36:42;;;;;;;32.07;11.27;;;14.80;30.40;;;;;;4987440;28;20480;-62
2022/06/15 03:39:09;;;;;;;34.37;10.87;;;14.80;30.50;;;;;;4977629;28;20460;-62
2022/06/15 03:41:37;;;;;;;35.50;11.00;;;14.80;31.00;;;;;;4988209;28;20460;-63
2022/06/15 03:44:04;;;;;;;32.27;11.23;;;14.70;30.70;;;;;;4986714;28;20992;-62
2022/06/15 03:46:31;;;;;;;33.23;11.07;;;14.80;30.90;;;;;;4988363;28;20485;-64
2022/06/15 03:48:58;;;;;;;30.57;9.87;;;14.80;30.90;;;;;;4989082;28;20544;-64
2022/06/15 03:51:24;;;;;;;33.07;11.10;;;14.90;30.80;;;;;;4988747;28;20480;-64
2022/06/15 03:53:51;;;;;;;33.67;10.07;;;14.90;30.90;;;;;;4988856;28;20457;-63
2022/06/15 03:56:18;;;;;;;32.00;11.60;;;14.90;30.60;;;;;;4993324;28;20464;-64
2022/06/15 03:58:46;;;;;;;32.10;10.47;;;15.00;30.50;;;;;;4994865;28;20465;-68
2022/06/15 04:01:14;;;;;;;32.27;9.83;;;15.10;30.90;;;;;;4995070;28;20527;-68
2022/06/15 04:03:40;;;;;;;35.40;11.20;;;15.20;29.90;;;;;;4994550;28;21005;-67
2022/06/15 04:06:07;;;;;;;34.27;10.90;;;15.10;30.50;;;;;;4993249;28;20468;-67
2022/06/15 04:08:37;;;;;;;37.43;11.60;;;15.20;30.20;;;;;;4992350;28;20489;-68
2022/06/15 04:11:07;;;;;;;33.40;10.33;;;15.10;30.10;;;;;;4993337;28;20491;-68
2022/06/15 04:13:34;;;;;;;32.07;9.70;;;15.20;29.90;;;;;;4994459;28;20464;-68
2022/06/15 04:16:06;;;;;;;34.27;10.80;;;15.20;29.70;;;;;;4993979;28;20471;-68
2022/06/15 04:18:33;;;;;;;38.40;11.70;;;15.20;29.60;;;;;;4994469;28;21100;-67
2022/06/15 04:20:59;;;;;;;33.70;11.07;;;15.20;29.40;;;;;;4994200;28;20487;-67
2022/06/15 04:23:26;;;;;;;33.37;11.67;;;15.20;29.60;;;;;;4993623;28;20464;-67
2022/06/15 04:25:57;;;;;;;38.17;10.60;;;15.20;29.50;;;;;;4993955;28;20468;-68
2022/06/15 04:28:26;;;;;;;35.53;10.40;;;15.30;29.70;;;;;;4995491;28;20992;-68
2022/06/15 04:30:53;;;;;;;32.20;10.67;;;15.30;29.90;;;;;;4994038;28;20485;-68
2022/06/15 04:33:23;;;;;;;40.53;10.80;;;15.90;31.30;;;;;;4995367;28;20460;-68
2022/06/15 04:35:50;;;;;;;38.40;10.30;;;17.10;29.00;;;;;;4994747;28;20567;-68
2022/06/15 04:38:17;;;;;;;36.17;8.60;;;18.40;25.20;;;;;;4993974;28;20492;-67
2022/06/15 04:40:44;;;;;;;33.73;8.17;;;19.60;21.50;;;;;;4995077;28;20838;-68
2022/06/15 04:43:11;;;;;;;39.73;9.20;;;20.70;18.70;;;;;;4993463;28;20464;-68
2022/06/15 04:45:38;;;;;;;34.60;8.77;;;21.60;16.80;;;;;;4995235;28;20938;-68
2022/06/15 04:48:05;;;;;;;35.00;9.10;;;22.50;15.20;;;;;;4993183;28;21029;-67
2022/06/15 04:50:34;;;;;;;37.47;9.63;;;23.30;13.50;;;;;;4994486;28;20855;-68
2022/06/15 04:53:01;;;;;;;33.53;8.60;;;23.90;12.00;;;;;;4992823;28;20491;-68
2022/06/15 04:55:29;;;;;;;32.20;7.60;;;24.50;10.30;;;;;;4993717;28;20844;-67
2022/06/15 04:57:58;;;;;;;36.30;8.07;;;24.70;9.80;;;;;;4992622;28;20491;-69
2022/06/15 05:00:27;;;;;;;33.87;7.37;;;25.00;9.40;;;;;;4993276;28;20456;-69
2022/06/15 05:02:54;;;;;;;32.40;7.80;;;25.60;8.50;;;;;;4994248;28;20456;-69
2022/06/15 05:05:21;;;;;;;32.40;7.83;;;26.30;7.60;;;;;;4993719;28;20468;-70
2022/06/15 05:07:50;;;;;;;33.90;7.50;;;27.00;6.70;;;;;;4989214;28;20491;-70
2022/06/15 05:10:21;;;;;;;33.07;7.80;;;27.50;5.90;;;;;;4990955;28;20841;-69
2022/06/15 05:12:48;;;;;;;31.83;7.97;;;28.00;4.90;;;;;;4990812;28;20989;-70
2022/06/15 05:15:16;;;;;;;32.27;7.60;;;28.30;4.20;;;;;;4988332;28;20532;-70
2022/06/15 05:17:44;;;;;;;33.20;8.43;;;28.70;3.60;;;;;;4989314;28;20487;-69
2022/06/15 05:20:12;;;;;;;32.43;7.60;;;29.20;3.20;;;;;;4990484;28;20463;-70
2022/06/15 05:22:39;;;;;;;30.47;8.03;;;29.80;2.00;;;;;;4990634;28;20456;-70
2022/06/15 05:25:09;;;;;;;33.13;7.63;;;30.00;1.40;;;;;;4990542;28;21201;-69
2022/06/15 05:27:37;;;;;;;31.67;7.30;;;30.60;1.00;;;;;;4989924;28;20483;-70
2022/06/15 05:30:05;;;;;;;30.70;7.47;;;31.00;1.00;;;;;;4989937;28;20456;-70
2022/06/15 05:32:32;;;;;;;34.03;8.03;;;31.50;1.00;;;;;;4990265;28;20469;-69
2022/06/15 05:35:00;;;;;;;30.10;7.13;;;31.70;1.00;;;;;;4990562;28;20543;-69
2022/06/15 05:37:29;;;;;;;30.30;7.97;;;32.20;1.00;;;;;;4989654;28;20477;-70
2022/06/15 05:39:55;;;;;;;30.87;8.23;;;32.80;1.00;;;;;;4989465;28;20461;-70
2022/06/15 05:42:26;;;;;;;29.70;6.80;;;33.60;1.00;;;;;;4989814;28;20655;-70
2022/06/15 05:44:54;;;;;;;31.10;7.63;;;34.50;1.00;;;;;;4990223;28;20457;-70
2022/06/15 05:47:20;;;;;;;30.30;7.20;;;34.70;1.00;;;;;;4989728;28;20487;-70
2022/06/15 05:49:47;;;;;;;29.50;7.10;;;34.90;1.00;;;;;;4987855;28;20766;-70
2022/06/15 05:52:14;;;;;;;28.73;7.30;;;35.50;1.00;;;;;;4989925;28;20512;-70
2022/06/15 05:54:41;;;;;;;27.80;6.97;;;35.90;1.00;;;;;;4990349;28;20997;-70
2022/06/15 05:57:12;;;;;;;31.50;6.93;;;36.50;1.00;;;;;;4990112;28;20487;-70
2022/06/15 05:59:40;;;;;;;30.87;6.77;;;37.30;1.00;;;;;;4988065;28;20465;-70
2022/06/15 06:02:09;;;;;;;30.50;6.97;;;37.50;1.00;;;;;;4970192;28;20472;-70
2022/06/15 06:04:36;;;;;;;28.00;6.43;;;37.70;1.00;;;;;;4970356;28;20458;-70
2022/06/15 06:07:03;;;;;;;29.20;6.93;;;38.10;1.00;;;;;;4970817;28;20488;-70
2022/06/15 06:09:31;;;;;;;26.87;6.50;;;38.70;1.00;;;;;;4971065;28;20464;-70
2022/06/15 06:11:58;;;;;;;28.40;6.47;;;39.50;1.00;;;;;;4985091;28;20489;-70
2022/06/15 06:14:24;;;;;;;28.17;5.83;;;39.70;1.00;;;;;;4989904;28;20460;-70
2022/06/15 06:16:53;;;;;;;28.03;6.30;;;40.20;1.00;;;;;;4990003;28;20496;-71
2022/06/15 06:19:19;;;;;;;26.93;6.20;;;40.50;1.00;;;;;;4990175;28;20461;-70
2022/06/15 06:21:46;;;;;;;27.17;6.40;;;40.80;1.00;;;;;;4988713;28;20552;-70
2022/06/15 06:27:35;;;;;;;25.40;6.13;;;41.30;1.00;;;;;;4989690;28;20440;-70
2022/06/15 06:30:02;;;;;;;27.30;6.67;;;42.00;1.00;;;;;;4990101;28;20865;-70
2022/06/15 06:32:30;;;;;;;25.23;5.77;;;42.80;1.00;;;;;;4987605;28;20472;-70
2022/06/15 06:34:58;;;;;;;25.10;5.83;;;42.90;1.00;;;;;;4989206;28;20461;-70
2022/06/15 06:37:25;;;;;;;27.43;6.83;;;43.10;1.00;;;;;;4988879;28;20480;-70
2022/06/15 06:39:56;;;;;;;27.17;5.67;;;43.10;1.00;;;;;;4989489;28;20467;-70
2022/06/15 06:42:22;;;;;;;26.17;5.40;;;43.60;1.00;;;;;;4988213;28;20479;-70
2022/06/15 06:44:50;;;;;;;26.20;5.53;;;44.30;1.00;;;;;;4989895;28;20449;-70
2022/06/15 06:47:17;;;;;;;25.40;6.07;;;45.20;1.00;;;;;;4989459;28;20480;-70
2022/06/15 06:49:45;;;;;;;24.57;5.00;;;45.90;1.00;;;;;;4989909;28;20491;-70
2022/06/15 06:52:12;;;;;;;24.50;5.40;;;46.30;1.00;;;;;;4988712;28;21042;-70
2022/06/15 06:54:39;;;;;;;25.17;5.87;;;47.00;1.00;;;;;;4989627;28;20460;-71
2022/06/15 06:57:06;;;;;;;24.50;5.30;;;47.60;1.00;;;;;;4988667;28;20517;-71
2022/06/15 06:59:33;;;;;;;24.80;5.10;;;48.40;1.00;;;;;;4987384;28;20468;-70
2022/06/15 07:01:59;;;;;;;23.50;5.10;;;48.10;1.00;;;;;;4988322;28;20487;-70
2022/06/15 07:04:26;;;;;;;23.60;4.90;;;47.90;1.00;;;;;;4987515;28;20487;-71
2022/06/15 07:06:57;;;;;;;25.67;5.60;;;47.40;1.00;;;;;;4989116;28;20481;-71
2022/06/15 07:09:26;;;;;;;24.43;4.50;;;47.30;1.00;;;;;;4988648;28;20448;-71
2022/06/15 07:11:53;;;;;;;24.30;5.10;;;47.50;1.00;;;;;;4989158;28;20496;-70
2022/06/15 07:14:20;;;;;;;23.40;4.90;;;47.60;1.00;;;;;;4987948;28;20487;-70
2022/06/15 07:16:46;;;;;;;24.03;4.80;;;47.80;1.00;;;;;;4988758;28;20572;-70
2022/06/15 07:19:13;;;;;;;23.77;4.60;;;47.90;1.00;;;;;;4989521;28;20815;-70
2022/06/15 07:21:41;;;;;;;22.30;4.03;;;48.60;1.00;;;;;;4989405;28;20934;-71
2022/06/15 07:24:09;;;;;;;23.30;4.30;;;49.60;1.00;;;;;;4987684;28;20464;-70
2022/06/15 07:26:42;;;;;;;22.00;4.30;;;50.40;1.00;;;;;;4988580;28;20491;-71
2022/06/15 07:29:09;;;;;;;22.20;4.50;;;51.00;1.00;;;;;;4988093;28;20976;-71
2022/06/15 07:31:39;;;;;;;23.33;4.40;;;51.30;1.00;;;;;;4987827;28;20477;-71
2022/06/15 07:34:08;;;;;;;23.07;4.60;;;51.00;1.00;;;;;;4987746;28;20469;-71
2022/06/15 07:36:36;;;;;;;23.23;5.10;;;50.70;1.00;;;;;;4988427;28;20481;-71
2022/06/15 07:39:04;;;;;;;21.67;4.60;;;51.10;1.00;;;;;;4988636;28;20972;-70
2022/06/15 07:41:33;;;;;;;21.47;4.10;;;51.50;1.00;;;;;;4988183;28;20464;-71
2022/06/15 07:44:00;;;;;;;22.03;4.63;;;51.90;1.00;;;;;;4987026;28;20973;-71
2022/06/15 07:46:27;;;;;;;21.23;4.57;;;52.20;1.00;;;;;;4988796;28;20468;-71
2022/06/15 07:51:43;;;;;;;20.87;4.10;;;52.20;1.00;;;;;;4988190;28;20543;-71
2022/06/15 07:54:12;;;;;;;22.47;4.87;;;52.20;1.00;;;;;;4988219;28;20461;-71
2022/06/15 07:56:43;;;;;;;22.00;4.17;;;52.30;1.00;;;;;;4988254;28;20476;-71
2022/06/15 07:59:09;;;;;;;21.90;4.60;;;52.60;1.00;;;;;;4988584;28;20452;-71
2022/06/15 08:01:37;;;;;;;21.10;4.37;;;52.40;1.00;;;;;;4986796;28;20471;-71
2022/06/15 08:04:04;;;;;;;23.03;4.40;;;52.70;1.00;;;;;;4987690;28;20463;-71
2022/06/15 08:06:32;;;;;;;21.10;4.37;;;53.20;1.00;;;;;;4988284;28;20893;-71
2022/06/15 08:08:59;;;;;;;21.50;4.80;;;53.70;1.00;;;;;;4987975;28;20624;-71
2022/06/15 08:11:26;;;;;;;20.70;3.67;;;53.80;1.00;;;;;;4987118;28;20484;-69
2022/06/15 08:13:55;;;;;;;23.80;4.63;;;54.20;1.00;;;;;;4987900;28;20496;-70
2022/06/15 08:16:22;;;;;;;20.23;4.20;;;54.70;1.00;;;;;;4988117;28;20472;-70
2022/06/15 08:18:53;;;;;;;20.37;3.70;;;55.20;1.00;;;;;;4988081;28;20463;-70
2022/06/15 08:21:25;;;;;;;22.23;4.50;;;55.50;1.00;;;;;;4987434;28;20463;-70
2022/06/15 08:23:54;;;;;;;19.97;3.80;;;55.80;1.00;;;;;;4988397;28;20730;-70
2022/06/15 08:26:24;;;;;;;21.50;4.10;;;55.90;1.00;;;;;;4988072;28;20464;-70
2022/06/15 08:28:55;;;;;;;19.53;3.70;;;56.60;1.00;;;;;;4988496;28;20467;-70
2022/06/15 08:31:22;;;;;;;19.83;3.73;;;57.10;1.00;;;;;;4987778;28;20481;-70
2022/06/15 08:33:48;;;;;;;25.10;3.70;;;57.70;1.00;;;;;;4987346;28;20460;-70
2022/06/15 08:36:15;;;;;;;19.40;3.40;;;57.70;1.00;;;;;;4987820;28;20484;-70
2022/06/15 08:38:43;;;;;;;20.30;3.83;;;57.80;1.00;;;;;;4988507;28;20456;-70
2022/06/15 08:41:19;;;;;;;19.60;3.50;;;57.80;1.00;;;;;;4988366;28;20965;-71
2022/06/15 08:43:59;;;;;;;19.00;2.97;;;58.00;1.00;;;;;;4990423;28;20979;-70
2022/06/15 08:46:48;;;;;;;20.10;3.47;;;58.00;1.00;;;;;;4991167;28;20452;-71
2022/06/15 08:49:34;;;;;;;19.63;3.80;;;58.20;1.00;;;;;;4991731;28;20204;-71
2022/06/15 08:52:04;;;;;;;20.20;4.00;;;58.10;1.00;;;;;;4991197;28;20220;-70
2022/06/15 08:54:36;;;;;;;19.37;3.67;;;58.10;1.00;;;;;;4990830;28;20193;-70
2022/06/15 08:57:12;;;;;;;18.57;3.33;;;57.90;1.00;;;;;;4991257;28;20232;-70
2022/06/15 08:59:46;;;;;;;20.40;3.83;;;57.80;1.00;;;;;;4992007;28;20423;-71
2022/06/15 09:02:32;;;;;;;23.37;4.50;;;57.90;1.00;;;;;;4991061;28;20236;-70
2022/06/15 09:05:06;;;;;;;23.93;3.60;;;57.90;1.00;;;;;;4990290;28;20251;-70
2022/06/15 09:07:51;;;;;;;19.17;3.70;;;58.30;1.00;;;;;;4991143;28;20220;-70
2022/06/15 09:10:32;;;;;;;19.73;3.30;;;57.80;1.00;;;;;;4991215;28;20702;-70
2022/06/15 09:13:12;;;;;;;19.27;3.43;;;57.60;1.00;;;;;;4990477;28;20244;-70
2022/06/15 09:15:48;;;;;;;20.07;3.00;;;57.70;1.00;;;;;;4990670;28;20280;-70
2022/06/15 09:18:20;;;;;;;20.00;3.53;;;57.20;1.00;;;;;;4990846;28;20488;-70
2022/06/15 09:20:51;;;;;;;21.90;3.50;;;55.90;1.00;;;;;;4990838;28;20839;-70
2022/06/15 09:23:23;;;;;;;21.13;4.07;;;53.50;1.00;;;;;;4990773;28;20514;-70
2022/06/15 09:25:54;;;;;;;20.80;3.50;;;51.40;1.00;;;;;;4989591;28;20968;-70
2022/06/15 09:28:29;;;;;;;21.37;4.23;;;49.20;1.00;;;;;;4990845;28;20843;-70
2022/06/15 09:31:02;;;;;;;23.13;4.17;;;47.20;1.00;;;;;;4990577;28;20477;-70
2022/06/15 09:33:32;;;;;;;22.20;3.87;;;45.30;1.00;;;;;;4991190;28;20480;-70
2022/06/15 09:36:07;;;;;;;23.47;4.40;;;43.80;1.00;;;;;;4989534;28;20555;-70
2022/06/15 09:38:34;;;;;;;23.50;4.73;;;42.50;1.00;;;;;;4990447;28;20996;-70
2022/06/15 09:41:05;;;;;;;23.73;3.83;;;41.40;1.00;;;;;;4990750;28;20468;-70
2022/06/15 09:43:41;;;;;;;25.90;4.60;;;40.40;1.00;;;;;;4991244;28;20434;-70
2022/06/15 09:46:16;;;;;;;25.10;4.17;;;39.60;1.00;;;;;;4988543;28;20452;-70
2022/06/15 09:49:00;;;;;;;26.10;5.10;;;38.60;1.00;;;;;;4990555;28;20466;-70
2022/06/15 09:51:34;;;;;;;27.73;4.80;;;37.90;1.00;;;;;;4990488;28;20453;-70
2022/06/15 09:54:10;;;;;;;25.40;4.80;;;37.10;1.00;;;;;;4990223;28;20449;-70
2022/06/15 09:56:38;;;;;;;24.43;4.50;;;36.60;1.00;;;;;;4989166;28;20491;-70
2022/06/15 09:59:07;;;;;;;24.87;4.60;;;36.20;1.00;;;;;;4990528;28;20971;-70
2022/06/15 10:01:41;;;;;;;25.30;4.57;;;35.90;1.00;;;;;;4989603;28;20473;-70
2022/06/15 10:04:16;;;;;;;25.50;5.37;;;35.70;1.00;;;;;;4990589;28;20544;-70
2022/06/15 10:06:47;;;;;;;24.93;4.73;;;35.30;1.00;;;;;;4988818;28;20488;-70
2022/06/15 10:09:17;;;;;;;24.97;4.67;;;34.90;1.00;;;;;;4989964;28;20466;-70
2022/06/15 10:11:47;;;;;;;24.80;4.47;;;34.50;1.00;;;;;;4989591;28;20960;-70
2022/06/15 10:14:20;;;;;;;28.07;4.50;;;34.20;1.00;;;;;;4990400;28;20829;-70
2022/06/15 10:16:55;;;;;;;26.77;4.87;;;34.10;1.00;;;;;;4988248;28;21021;-70
2022/06/15 10:19:24;;;;;;;24.77;4.77;;;33.80;1.00;;;;;;4988971;28;20452;-70
2022/06/15 10:21:54;;;;;;;27.33;5.10;;;33.60;1.00;;;;;;4989970;28;21022;-69
2022/06/15 10:24:24;;;;;;;27.00;4.07;;;33.40;1.00;;;;;;4989761;28;20825;-70
2022/06/15 10:26:54;;;;;;;26.40;4.20;;;33.10;1.00;;;;;;4988511;28;20488;-70
2022/06/15 10:29:26;;;;;;;23.93;4.00;;;33.00;1.00;;;;;;4989497;28;20961;-70
2022/06/15 10:32:20;;;;;;;27.63;4.00;;;32.80;1.00;;;;;;4988987;28;20476;-70
2022/06/15 10:34:54;;;;;;;26.23;4.50;;;32.70;1.00;;;;;;4989313;28;20504;-70
2022/06/15 10:37:30;;;;;;;25.00;4.10;;;32.50;1.00;;;;;;4988646;28;20494;-70
2022/06/15 10:40:01;;;;;;;29.80;4.57;;;32.50;1.00;;;;;;4989865;28;20813;-69
2022/06/15 10:42:35;;;;;;;26.33;4.47;;;32.30;1.00;;;;;;4989792;28;20456;-70
2022/06/15 10:45:04;;;;;;;26.20;4.13;;;32.20;1.00;;;;;;4989964;28;20456;-69
2022/06/15 10:47:41;;;;;;;26.30;4.27;;;32.10;1.00;;;;;;4987921;28;21032;-70
2022/06/15 10:50:18;;;;;;;27.13;4.50;;;32.10;1.30;;;;;;4989492;28;20441;-70
2022/06/15 10:52:50;;;;;;;26.07;4.70;;;32.00;1.00;;;;;;4989253;28;20485;-70
2022/06/15 11:04:14;;;;;;;26.00;4.90;;;31.50;1.00;;;;;;4988646;28;20424;-69
2022/06/15 11:06:45;;;;;;;26.57;5.10;;;31.40;2.70;;;;;;4988801;28;20484;-70
2022/06/15 11:09:25;;;;;;;25.70;4.70;;;31.30;3.40;;;;;;4987831;28;20473;-70
2022/06/15 11:11:53;;;;;;;25.33;4.90;;;31.30;3.60;;;;;;4989093;28;20495;-69
2022/06/15 11:14:25;;;;;;;28.00;5.50;;;31.30;3.50;;;;;;4988940;28;20502;-70
2022/06/15 11:19:52;;;;;;;27.57;5.40;;;31.20;3.00;;;;;;4988021;28;20459;-69
2022/06/15 11:22:20;;;;;;;30.23;6.33;;;31.10;3.80;;;;;;4988803;28;20497;-71
2022/06/15 11:25:00;;;;;;;26.57;5.37;;;31.10;3.70;;;;;;4988815;28;20465;-69
2022/06/15 11:27:31;;;;;;;27.30;5.50;;;31.00;2.90;;;;;;4988621;28;20513;-69
2022/06/15 11:30:01;;;;;;;26.17;5.00;;;30.80;3.60;;;;;;4987153;28;20468;-69
2022/06/15 11:32:45;;;;;;;26.60;5.90;;;30.70;3.30;;;;;;4987680;28;20477;-69
2022/06/15 11:35:25;;;;;;;26.50;4.57;;;30.70;4.00;;;;;;4988709;28;20445;-71
2022/06/15 11:37:57;;;;;;;30.27;5.13;;;30.60;3.90;;;;;;4987927;28;20487;-69
2022/06/15 11:40:35;;;;;;;26.80;5.03;;;30.50;3.60;;;;;;4987554;28;20557;-69
2022/06/15 11:43:10;;;;;;;26.37;5.00;;;30.40;3.80;;;;;;4988365;28;20468;-69
2022/06/15 11:45:52;;;;;;;27.03;4.83;;;30.30;3.60;;;;;;4988724;28;20467;-70
2022/06/15 11:48:26;;;;;;;25.53;4.90;;;30.10;3.90;;;;;;4984198;28;20480;-71
2022/06/15 11:51:02;;;;;;;25.93;4.70;;;30.10;5.80;;;;;;4988568;28;20463;-71
2022/06/15 11:53:43;;;;;;;26.80;4.93;;;30.10;5.40;;;;;;4988353;28;20862;-71
2022/06/15 11:56:12;;;;;;;26.37;4.80;;;30.00;4.70;;;;;;4987711;28;20451;-71
2022/06/15 11:58:48;;;;;;;26.00;4.73;;;30.00;4.50;;;;;;4986574;28;20471;-71
2022/06/15 12:01:27;;;;;;;24.80;4.57;;;29.90;4.10;;;;;;4987772;28;20468;-70
2022/06/15 12:04:33;;;;;;;26.77;4.80;;;29.90;6.00;;;;;;4988544;28;20437;-71
2022/06/15 12:07:12;;;;;;;26.50;4.50;;;29.90;6.10;;;;;;4988447;28;20476;-70
2022/06/15 12:09:54;;;;;;;25.97;4.70;;;29.90;5.40;;;;;;4987643;28;20456;-71
2022/06/15 12:12:40;;;;;;;24.00;3.70;;;29.80;5.50;;;;;;4988177;28;20870;-71
2022/06/15 12:15:30;;;;;;;26.57;4.60;;;29.90;6.20;;;;;;4988550;28;20991;-71
2022/06/15 12:18:04;;;;;;;30.43;4.80;;;29.80;5.90;;;;;;4991354;28;20575;-71
2022/06/15 12:20:46;;;;;;;26.00;4.47;;;29.80;6.50;;;;;;4992541;28;20448;-71
2022/06/15 12:23:26;;;;;;;26.37;4.73;;;29.70;5.60;;;;;;4992003;28;20463;-71
2022/06/15 12:26:01;;;;;;;28.73;3.80;;;29.70;4.50;;;;;;4991968;28;20577;-70
2022/06/15 12:28:37;;;;;;;28.37;4.20;;;29.70;3.10;;;;;;4990620;28;20987;-72
2022/06/15 12:31:10;;;;;;;26.10;4.77;;;29.50;1.40;;;;;;4991460;28;20479;-71
2022/06/15 12:33:42;;;;;;;26.67;4.20;;;29.40;5.10;;;;;;4992182;28;20744;-71
2022/06/15 12:36:16;;;;;;;26.40;4.53;;;29.40;5.40;;;;;;4991992;28;20456;-71
2022/06/15 12:38:52;;;;;;;27.13;5.20;;;29.50;5.60;;;;;;4990843;28;20436;-71
2022/06/15 12:44:17;;;;;;;29.60;4.53;;;29.50;6.40;;;;;;4992058;28;20412;-71
2022/06/15 12:46:45;;;;;;;26.80;4.67;;;29.50;4.80;;;;;;4992063;28;20476;-71
2022/06/15 12:49:24;;;;;;;26.60;4.40;;;29.40;1.90;;;;;;4990122;28;20503;-71
2022/06/15 12:52:00;;;;;;;25.77;3.60;;;29.40;2.30;;;;;;4991576;28;20984;-71
2022/06/15 12:54:39;;;;;;;25.87;3.87;;;29.40;2.30;;;;;;4991289;28;20488;-70
2022/06/15 12:57:14;;;;;;;26.93;4.30;;;29.30;1.90;;;;;;4991503;28;20480;-70
2022/06/15 12:59:51;;;;;;;27.30;4.53;;;29.30;2.50;;;;;;4990098;28;20468;-70
2022/06/15 13:02:22;;;;;;;28.47;4.57;;;29.30;2.60;;;;;;4991685;28;20469;-70
2022/06/15 13:05:01;;;;;;;26.93;4.27;;;29.20;1.20;;;;;;4993362;28;20461;-71
2022/06/15 13:07:31;;;;;;;27.97;4.10;;;29.20;1.20;;;;;;4991090;28;20484;-71
2022/06/15 13:10:24;;;;;;;25.70;4.70;;;29.20;1.40;;;;;;4989807;28;20544;-68
2022/06/15 13:12:54;;;;;;;26.40;3.50;;;29.10;2.40;;;;;;4972010;28;20485;-71
2022/06/15 13:15:26;;;;;;;27.07;4.50;;;29.20;2.10;;;;;;4972157;28;20442;-71
2022/06/15 13:18:09;;;;;;;28.00;4.23;;;29.10;2.00;;;;;;4971430;28;20481;-70
2022/06/15 13:21:04;;;;;;;29.37;5.03;;;29.20;1.90;;;;;;4973448;28;20552;-70
2022/06/15 13:23:36;;;;;;;26.33;4.10;;;29.10;1.40;;;;;;4977961;28;20461;-70
2022/06/15 13:26:08;;;;;;;29.60;4.53;;;29.00;1.20;;;;;;4991131;28;20441;-70